EZY91QC EGKK-EDDM
Flight info
| Callsign | EZY91QC |
|---|---|
| Flight time | N/A |
| Altitude | 35000 |
| Route | MIMFO Y312 DVR UL9 KONAN UL607 KOK DCT MATUG DCT MOVUM T109 HAREM/N0363F230 T104 ROKIL ROKIL1B |
| Aircraft | A21N/M-SDE2E3FGHIJ1RWXYZ/LB1G1 |
Departure
| Time | 2026-05-04 07:12 |
|---|---|
| Airport | London Gatwick Airport (EGKK) |
Arrival
| Time | N/A |
|---|---|
| Airport | Munich Airport (EDDM) |
| Time | Latitude | Longitude | Altitude | Speed | Heading |
|---|---|---|---|---|---|
| 2026-05-04 06:53 | 51.15498 | -0.16843 | 198 ft | 0 kts | 347° |
| 2026-05-04 07:02 | 51.15490 | -0.16840 | 198 ft | 2 kts | 346° |
| 2026-05-04 07:02 | 51.15476 | -0.16835 | 198 ft | 2 kts | 347° |
| 2026-05-04 07:03 | 51.15460 | -0.16835 | 198 ft | 2 kts | 25° |
| 2026-05-04 07:03 | 51.15448 | -0.16850 | 198 ft | 2 kts | 60° |
| 2026-05-04 07:03 | 51.15445 | -0.16862 | 198 ft | 0 kts | 80° |
| 2026-05-04 07:03 | 51.15445 | -0.16871 | 198 ft | 0 kts | 78° |
| 2026-05-04 07:06 | 51.15446 | -0.16861 | 198 ft | 2 kts | 78° |
| 2026-05-04 07:07 | 51.15451 | -0.16825 | 198 ft | 4 kts | 78° |
| 2026-05-04 07:08 | 51.15140 | -0.16664 | 198 ft | 9 kts | 249° |
| 2026-05-04 07:09 | 51.15123 | -0.16775 | 198 ft | 11 kts | 257° |
| 2026-05-04 07:09 | 51.15122 | -0.16781 | 198 ft | 0 kts | 257° |
| 2026-05-04 07:12 | 51.14109 | -0.24236 | 1713 ft | 205 kts | 261° |
| 2026-05-04 07:12 | 51.13833 | -0.26586 | 2143 ft | 230 kts | 262° |
| 2026-05-04 07:12 | 51.13804 | -0.29174 | 2794 ft | 238 kts | 292° |
| 2026-05-04 07:12 | 51.14716 | -0.31251 | 3554 ft | 229 kts | 324° |
| 2026-05-04 07:13 | 51.16159 | -0.32196 | 3904 ft | 229 kts | 354° |
| 2026-05-04 07:13 | 51.17715 | -0.31817 | 3979 ft | 232 kts | 25° |
| 2026-05-04 07:13 | 51.18930 | -0.30133 | 3985 ft | 240 kts | 56° |
| 2026-05-04 07:14 | 51.20464 | -0.19861 | 3996 ft | 248 kts | 77° |
| 2026-05-04 07:14 | 51.20801 | -0.17103 | 4001 ft | 259 kts | 76° |
| 2026-05-04 07:15 | 51.21164 | -0.14251 | 4058 ft | 271 kts | 76° |
| 2026-05-04 07:15 | 51.21549 | -0.11288 | 4613 ft | 274 kts | 76° |
| 2026-05-04 07:15 | 51.21928 | -0.08374 | 4925 ft | 271 kts | 75° |
| 2026-05-04 07:15 | 51.22308 | -0.05452 | 4978 ft | 269 kts | 75° |
| 2026-05-04 07:16 | 51.22690 | -0.02546 | 4985 ft | 272 kts | 76° |
| 2026-05-04 07:16 | 51.23073 | 0.00405 | 4992 ft | 271 kts | 75° |
| 2026-05-04 07:16 | 51.23446 | 0.03283 | 4991 ft | 270 kts | 76° |
| 2026-05-04 07:16 | 51.23822 | 0.06179 | 4994 ft | 273 kts | 76° |
| 2026-05-04 07:17 | 51.24205 | 0.09151 | 4996 ft | 272 kts | 75° |
| 2026-05-04 07:17 | 51.24572 | 0.12005 | 4994 ft | 272 kts | 76° |
| 2026-05-04 07:17 | 51.24954 | 0.14979 | 4998 ft | 271 kts | 75° |
| 2026-05-04 07:17 | 51.25309 | 0.17895 | 4995 ft | 270 kts | 79° |
| 2026-05-04 07:18 | 51.25428 | 0.20915 | 4997 ft | 273 kts | 89° |
| 2026-05-04 07:18 | 51.25265 | 0.24005 | 5319 ft | 284 kts | 94° |
| 2026-05-04 07:18 | 51.25022 | 0.27094 | 5794 ft | 281 kts | 95° |
| 2026-05-04 07:18 | 51.24768 | 0.30208 | 5987 ft | 282 kts | 95° |
| 2026-05-04 07:19 | 51.24524 | 0.33301 | 5986 ft | 284 kts | 95° |
| 2026-05-04 07:19 | 51.24276 | 0.36438 | 5991 ft | 284 kts | 95° |
| 2026-05-04 07:19 | 51.24035 | 0.39549 | 5995 ft | 284 kts | 95° |
| 2026-05-04 07:19 | 51.23797 | 0.42669 | 5996 ft | 285 kts | 95° |
| 2026-05-04 07:20 | 51.23557 | 0.45810 | 5997 ft | 285 kts | 95° |
| 2026-05-04 07:20 | 51.23313 | 0.48934 | 5996 ft | 285 kts | 95° |
| 2026-05-04 07:20 | 51.23074 | 0.52078 | 6143 ft | 292 kts | 95° |
| 2026-05-04 07:20 | 51.22825 | 0.55313 | 6931 ft | 296 kts | 95° |
| 2026-05-04 07:22 | 51.20915 | 0.79675 | 11797 ft | 355 kts | 99° |
| 2026-05-04 07:22 | 51.20601 | 0.83590 | 12561 ft | 359 kts | 99° |
| 2026-05-04 07:23 | 51.20280 | 0.87563 | 13268 ft | 365 kts | 99° |
| 2026-05-04 07:23 | 51.19955 | 0.91572 | 13928 ft | 371 kts | 100° |
| 2026-05-04 07:23 | 51.19622 | 0.95673 | 14584 ft | 377 kts | 100° |
| 2026-05-04 07:23 | 51.19283 | 0.99821 | 15231 ft | 383 kts | 100° |
| 2026-05-04 07:24 | 51.18947 | 1.03938 | 15872 ft | 387 kts | 101° |
| 2026-05-04 07:24 | 51.18595 | 1.08226 | 16561 ft | 391 kts | 101° |
| 2026-05-04 07:24 | 51.18239 | 1.12553 | 17229 ft | 395 kts | 101° |
| 2026-05-04 07:24 | 51.17875 | 1.16925 | 17852 ft | 399 kts | 101° |
| 2026-05-04 07:25 | 51.17508 | 1.21315 | 18456 ft | 404 kts | 101° |
| 2026-05-04 07:26 | 51.15406 | 1.53919 | 22146 ft | 443 kts | 98° |
| 2026-05-04 07:27 | 51.15176 | 1.58773 | 22624 ft | 448 kts | 98° |
| 2026-05-04 07:27 | 51.14932 | 1.63785 | 23102 ft | 453 kts | 98° |
| 2026-05-04 07:27 | 51.14686 | 1.68794 | 23555 ft | 458 kts | 99° |
| 2026-05-04 07:27 | 51.14434 | 1.73865 | 23999 ft | 462 kts | 99° |
| 2026-05-04 07:28 | 51.14176 | 1.78979 | 24429 ft | 466 kts | 99° |
| 2026-05-04 07:28 | 51.13914 | 1.84124 | 24843 ft | 471 kts | 99° |
| 2026-05-04 07:28 | 51.13650 | 1.89242 | 25240 ft | 475 kts | 99° |
| 2026-05-04 07:28 | 51.13376 | 1.94522 | 25637 ft | 479 kts | 99° |
| 2026-05-04 07:29 | 51.13097 | 1.99848 | 26024 ft | 483 kts | 99° |
| 2026-05-04 07:29 | 51.12816 | 2.05210 | 26400 ft | 487 kts | 99° |
| 2026-05-04 07:29 | 51.12528 | 2.10648 | 26768 ft | 491 kts | 99° |
| 2026-05-04 07:29 | 51.12241 | 2.16021 | 27119 ft | 495 kts | 99° |
| 2026-05-04 07:30 | 51.11941 | 2.21566 | 27470 ft | 499 kts | 99° |
| 2026-05-04 07:30 | 51.11645 | 2.26990 | 27805 ft | 503 kts | 99° |
| 2026-05-04 07:30 | 51.11340 | 2.32534 | 28138 ft | 506 kts | 99° |
| 2026-05-04 07:30 | 51.11058 | 2.37609 | 28435 ft | 510 kts | 99° |
| 2026-05-04 07:31 | 51.10747 | 2.43165 | 28781 ft | 512 kts | 99° |
| 2026-05-04 07:31 | 51.10434 | 2.48711 | 29213 ft | 512 kts | 99° |
| 2026-05-04 07:33 | 51.05946 | 2.86895 | 31776 ft | 508 kts | 113° |
| 2026-05-04 07:33 | 51.05011 | 2.92366 | 32093 ft | 509 kts | 112° |
| 2026-05-04 07:33 | 51.04089 | 2.97787 | 32372 ft | 511 kts | 112° |
| 2026-05-04 07:33 | 51.03150 | 3.03324 | 32631 ft | 513 kts | 111° |
| 2026-05-04 07:34 | 51.02225 | 3.08782 | 32902 ft | 515 kts | 111° |
| 2026-05-04 07:34 | 51.01375 | 3.13806 | 33171 ft | 516 kts | 110° |
| 2026-05-04 07:34 | 51.00656 | 3.18069 | 33396 ft | 516 kts | 110° |
| 2026-05-04 07:34 | 50.99725 | 3.23588 | 33674 ft | 517 kts | 110° |
| 2026-05-04 07:35 | 50.99015 | 3.27787 | 33878 ft | 518 kts | 110° |
| 2026-05-04 07:35 | 50.97561 | 3.36340 | 34295 ft | 519 kts | 110° |
| 2026-05-04 07:35 | 50.96619 | 3.41847 | 34579 ft | 518 kts | 109° |
| 2026-05-04 07:35 | 50.95668 | 3.47390 | 34864 ft | 518 kts | 109° |
| 2026-05-04 07:36 | 50.93765 | 3.58406 | 34965 ft | 517 kts | 109° |
| 2026-05-04 07:38 | 50.86959 | 3.97098 | 34993 ft | 537 kts | 109° |
| 2026-05-04 07:38 | 50.86002 | 4.02459 | 34994 ft | 541 kts | 109° |
| 2026-05-04 07:38 | 50.83908 | 4.14206 | 34996 ft | 542 kts | 109° |
| 2026-05-04 07:39 | 50.81911 | 4.25364 | 34997 ft | 542 kts | 109° |
| 2026-05-04 07:39 | 50.79860 | 4.36751 | 34997 ft | 542 kts | 109° |
| 2026-05-04 07:40 | 50.77806 | 4.48078 | 34997 ft | 542 kts | 109° |
| 2026-05-04 07:40 | 50.75727 | 4.59465 | 34997 ft | 542 kts | 109° |
| 2026-05-04 07:41 | 50.73691 | 4.70569 | 34996 ft | 542 kts | 110° |